createdAt,value
2022-11-17T00:08:01.724Z,14.23
2022-11-17T00:18:03.813Z,22.60
2022-11-17T00:28:07.139Z,20.42
2022-11-17T00:38:09.141Z,19.85
2022-11-17T00:48:12.438Z,26.67
2022-11-17T00:58:14.408Z,29.75
2022-11-17T01:08:17.759Z,28.40
2022-11-17T01:18:19.721Z,21.90
2022-11-17T01:28:23.048Z,26.00
2022-11-17T01:38:25.151Z,17.40
2022-11-17T01:48:28.862Z,13.55
2022-11-17T01:58:34.016Z,10.82
2022-11-17T02:08:40.040Z,19.40
2022-11-17T02:18:43.341Z,33.88
2022-11-17T02:28:53.423Z,30.52
2022-11-17T02:49:08.138Z,13.68
2022-11-17T02:59:12.278Z,15.80
2022-11-17T03:09:20.691Z,9.18
2022-11-17T03:19:28.656Z,8.23
2022-11-17T03:29:35.830Z,7.10
2022-11-17T03:39:41.581Z,1.67
2022-11-17T03:49:51.482Z,3.22
2022-11-17T03:59:57.117Z,1.30
2022-11-17T04:10:00.416Z,0.95
2022-11-17T04:20:02.299Z,0.70
2022-11-17T04:30:06.651Z,2.00
2022-11-17T04:40:10.004Z,0.82
2022-11-17T04:50:13.377Z,3.60
2022-11-17T05:00:16.759Z,3.45
2022-11-17T05:10:20.086Z,2.70
2022-11-17T05:20:21.992Z,5.30
2022-11-17T05:30:25.313Z,2.45
2022-11-17T05:40:27.216Z,5.63
2022-11-17T05:50:30.570Z,1.40
2022-11-17T06:00:33.805Z,4.82
2022-11-17T06:10:37.129Z,2.38
2022-11-17T06:20:43.922Z,2.35
2022-11-17T06:30:48.062Z,4.25
2022-11-17T06:40:49.945Z,3.38
2022-11-17T06:50:53.484Z,5.78
2022-11-17T07:01:00.835Z,3.58
2022-11-17T07:11:05.502Z,4.75
2022-11-17T07:21:10.406Z,6.38
2022-11-17T07:31:13.760Z,3.10
2022-11-17T07:41:15.702Z,6.28
2022-11-17T07:51:18.992Z,5.13
2022-11-17T08:01:20.956Z,5.13
2022-11-17T08:11:24.390Z,3.77
2022-11-17T08:21:26.485Z,6.15
2022-11-17T08:31:29.810Z,2.80
2022-11-17T08:41:31.752Z,3.17
2022-11-17T08:51:35.063Z,3.70
2022-11-17T09:01:37.048Z,7.82
2022-11-17T09:11:40.392Z,10.35
2022-11-17T09:21:42.512Z,5.35
2022-11-17T09:31:45.846Z,3.30
2022-11-17T09:41:50.143Z,3.67
2022-11-17T09:51:58.261Z,3.70
2022-11-17T10:02:00.251Z,8.73
2022-11-17T10:12:15.492Z,5.75
2022-11-17T10:22:23.927Z,5.13
2022-11-17T10:32:28.053Z,11.10
2022-11-17T10:42:30.076Z,4.05
2022-11-17T10:52:33.376Z,4.80
2022-11-17T11:02:37.461Z,6.57
2022-11-17T11:12:46.441Z,4.90
2022-11-17T11:22:55.717Z,2.45
2022-11-17T11:33:15.547Z,5.23
2022-11-17T11:43:29.482Z,7.17
2022-11-17T11:53:44.162Z,7.97
2022-11-17T12:03:54.952Z,11.18
2022-11-17T12:13:59.460Z,6.78
2022-11-17T12:24:17.422Z,5.53
2022-11-17T12:34:25.453Z,11.93
2022-11-17T12:44:58.134Z,5.22
2022-11-17T12:55:11.931Z,3.13
2022-11-17T13:05:18.734Z,6.47
2022-11-17T13:15:23.427Z,3.38
2022-11-17T13:25:25.324Z,5.70
2022-11-17T13:35:30.464Z,6.65
2022-11-17T13:45:32.488Z,6.18
2022-11-17T13:55:36.306Z,6.03
2022-11-17T14:05:38.218Z,4.63
2022-11-17T14:15:42.422Z,4.65
2022-11-17T14:25:46.048Z,5.45
2022-11-17T14:35:52.446Z,1.50
2022-11-17T14:45:54.346Z,2.17
2022-11-17T14:55:57.590Z,3.95
2022-11-17T15:05:59.606Z,2.60
2022-11-17T15:16:04.542Z,4.80
2022-11-17T15:26:07.835Z,5.05
2022-11-17T15:36:13.056Z,3.72
2022-11-17T15:46:16.671Z,4.53
2022-11-17T15:56:22.065Z,2.72
2022-11-17T16:06:24.004Z,4.97
2022-11-17T16:16:29.020Z,4.28
2022-11-17T16:26:31.581Z,3.78
2022-11-17T16:36:47.394Z,3.33
2022-11-17T16:46:49.460Z,6.93
2022-11-17T16:57:01.111Z,5.68
2022-11-17T17:07:36.115Z,8.25
2022-11-17T17:17:39.490Z,2.70
2022-11-17T17:27:41.456Z,8.18
2022-11-17T17:37:44.711Z,11.35
2022-11-17T17:47:46.611Z,3.53
2022-11-17T17:57:49.894Z,4.68
2022-11-17T18:08:03.879Z,37.60
2022-11-17T18:18:07.192Z,20.95
2022-11-17T18:28:09.088Z,7.68
2022-11-17T18:38:12.442Z,10.23
2022-11-17T18:48:14.445Z,10.52
2022-11-17T18:58:17.697Z,3.90
2022-11-17T19:08:19.747Z,5.97
2022-11-17T19:18:23.201Z,4.10
2022-11-17T19:28:25.204Z,14.23
2022-11-17T19:38:32.059Z,4.60
2022-11-17T19:48:34.550Z,3.55
2022-11-17T19:58:38.292Z,9.40
2022-11-17T20:08:40.708Z,5.43
2022-11-17T20:18:45.045Z,4.85
2022-11-17T20:28:47.566Z,4.07
2022-11-17T20:38:52.537Z,5.35
2022-11-17T20:48:54.564Z,5.00
2022-11-17T20:58:57.822Z,3.90
2022-11-17T21:08:59.715Z,6.80
2022-11-17T21:19:03.115Z,5.72
2022-11-17T21:29:06.966Z,3.65
2022-11-17T21:39:10.600Z,5.15
2022-11-17T21:49:12.536Z,3.58
2022-11-17T21:59:16.106Z,8.65
2022-11-17T22:09:18.411Z,6.85
2022-11-17T22:19:24.097Z,3.95
2022-11-17T22:29:25.974Z,9.85
2022-11-17T22:39:29.284Z,10.85
2022-11-17T22:49:31.285Z,8.40
2022-11-17T22:59:34.585Z,2.65
2022-11-17T23:09:36.503Z,4.55
2022-11-17T23:19:39.796Z,5.53
2022-11-17T23:29:41.705Z,4.20
2022-11-17T23:39:45.028Z,6.30
2022-11-17T23:49:47.058Z,4.35
2022-11-17T23:59:50.422Z,6.18
